King And Queen Court Hous, Virginia
Current Conditions -  °F | °C
As of 6:55 PM on Friday 19 Dec 2014 (Local Time) from KXSA Reporting Station
Clear Clear  
Wind Chill: 35°   Ceiling: Unl
Heat Index: 35°   Visibility: 10mi
Dew Point: 21°   Wind: 0mph
Humidity: 56%   Direction: NA
Pressure: 30.22"   Gusts: NA
Location:  37.7018°N, 76.9162°W
Report Text: KXSA 192355Z AUTO 00000KT 10SM CLR 02/M06 A3022 RMK AO2 T00191060 10061 20019
Loading
Personal Weather Stations






























Interactive Weather Map New forecast layout! Learn more

10-Day Weather Forecast

Advertisements
Track Severe Weather on mobile